createdAt,value
2023-04-06T00:00:40.141Z,12.03
2023-04-06T00:04:40.474Z,17.43
2023-04-06T00:08:40.573Z,13.8
2023-04-06T00:12:40.813Z,23.87
2023-04-06T00:16:40.587Z,11.67
2023-04-06T00:20:40.446Z,13.63
2023-04-06T00:24:40.732Z,14.27
2023-04-06T00:28:40.625Z,11.4
2023-04-06T00:32:40.378Z,14.87
2023-04-06T00:36:40.908Z,11.67
2023-04-06T00:40:40.430Z,9.47
2023-04-06T00:44:40.515Z,9.53
2023-04-06T00:48:40.575Z,17.4
2023-04-06T00:52:40.679Z,10.67
2023-04-06T00:56:40.401Z,13.97
2023-04-06T01:00:40.455Z,13.9
2023-04-06T01:04:40.525Z,11.3
2023-04-06T01:08:40.503Z,11.37
2023-04-06T01:12:40.940Z,12.77
2023-04-06T01:16:40.377Z,14.53
2023-04-06T01:20:40.824Z,12.53
2023-04-06T01:24:40.543Z,11.03
2023-04-06T01:28:40.432Z,11.73
2023-04-06T01:32:40.486Z,9.9
2023-04-06T01:36:40.660Z,13.13
2023-04-06T01:40:40.402Z,11.63
2023-04-06T01:44:40.481Z,12.23
2023-04-06T01:48:40.500Z,10.57
2023-04-06T01:52:40.486Z,11.5
2023-04-06T01:56:40.503Z,11.57
2023-04-06T02:00:40.616Z,17.67
2023-04-06T02:04:40.432Z,13.2
2023-04-06T02:08:40.891Z,12.4
2023-04-06T02:12:40.751Z,12.43
2023-04-06T02:16:40.455Z,18.17
2023-04-06T02:20:40.392Z,9.97
2023-04-06T02:24:40.482Z,16.23
2023-04-06T02:28:40.411Z,12.47
2023-04-06T02:32:40.583Z,13.7
2023-04-06T02:36:40.292Z,13.83
2023-04-06T02:40:40.525Z,16.7
2023-04-06T02:44:40.786Z,12.8
2023-04-06T02:48:40.583Z,14.63
2023-04-06T02:52:40.526Z,12.53
2023-04-06T02:56:40.513Z,13.53
2023-04-06T03:00:40.686Z,13.9
2023-04-06T03:04:40.620Z,22.53
2023-04-06T03:08:40.688Z,16.57
2023-04-06T03:12:40.620Z,13.2
2023-04-06T03:16:40.490Z,12.57
2023-04-06T03:20:40.555Z,14.63
2023-04-06T03:24:40.656Z,16.33
2023-04-06T03:28:40.472Z,8.27
2023-04-06T03:32:40.587Z,10.67
2023-04-06T03:36:40.596Z,9.57
2023-04-06T03:40:40.430Z,10.83
2023-04-06T03:44:40.443Z,13.8
2023-04-06T03:48:40.574Z,11.03
2023-04-06T03:52:40.408Z,10.17
2023-04-06T03:56:40.370Z,13.1
2023-04-06T04:00:40.894Z,14.07
2023-04-06T04:04:40.612Z,13.13
2023-04-06T04:08:40.487Z,16.33
2023-04-06T04:12:40.500Z,12.63
2023-04-06T04:16:40.845Z,11.87
2023-04-06T04:20:40.191Z,15.7
2023-04-06T04:24:39.369Z,14
2023-04-06T04:28:41.188Z,12.47
2023-04-06T04:32:40.586Z,13.43
2023-04-06T04:36:40.458Z,18.77
2023-04-06T04:40:40.540Z,15.2
2023-04-06T04:44:40.452Z,16.73
2023-04-06T04:48:40.549Z,16.93
2023-04-06T04:52:40.563Z,22.67
2023-04-06T04:56:40.427Z,30.63
2023-04-06T05:00:40.587Z,21.67
2023-04-06T05:04:41.267Z,20.47
2023-04-06T05:08:40.550Z,14.13
2023-04-06T05:12:41.179Z,11
2023-04-06T05:16:40.593Z,11.73
2023-04-06T05:20:40.562Z,16
2023-04-06T05:24:41.118Z,20.57
2023-04-06T05:28:40.507Z,12.1
2023-04-06T05:32:40.532Z,11.77
2023-04-06T05:36:40.481Z,17.6
2023-04-06T05:40:40.514Z,13.73
2023-04-06T05:44:40.497Z,13.63
2023-04-06T05:48:41.267Z,14.4
2023-04-06T05:52:40.405Z,8.6
2023-04-06T05:56:40.533Z,12.47
2023-04-06T06:00:40.637Z,10.93
2023-04-06T06:04:40.969Z,13.23
2023-04-06T06:08:40.472Z,12.23
2023-04-06T06:12:40.849Z,13.77
2023-04-06T06:16:39.958Z,11.17
2023-04-06T06:20:41.289Z,8.7
2023-04-06T06:24:40.596Z,12.2
2023-04-06T06:28:39.536Z,15.8
2023-04-06T06:32:40.781Z,9.65
2023-04-06T06:36:41.197Z,12.98
2023-04-06T06:40:40.850Z,13.65
2023-04-06T06:44:40.627Z,12.8
2023-04-06T06:48:40.464Z,7.7
2023-04-06T06:52:40.387Z,13.18
2023-04-06T06:56:41.148Z,9.9
2023-04-06T07:00:41.040Z,7.37
2023-04-06T07:04:40.927Z,5.62
2023-04-06T07:08:40.464Z,6.75
2023-04-06T07:12:41.142Z,7.15
2023-04-06T07:16:41.160Z,9.1
2023-04-06T07:20:40.478Z,10.63
2023-04-06T07:24:40.663Z,8.43
2023-04-06T07:28:40.091Z,7.03
2023-04-06T07:32:40.859Z,8.7
2023-04-06T07:36:40.453Z,7.78
2023-04-06T07:40:40.613Z,8.02
2023-04-06T07:44:40.477Z,7.57
2023-04-06T07:48:41.189Z,5.97
2023-04-06T07:52:40.414Z,15.38
2023-04-06T07:56:40.389Z,5.85
2023-04-06T08:00:40.689Z,6.15
2023-04-06T08:04:40.764Z,8.1
2023-04-06T08:08:40.443Z,6.45
2023-04-06T08:12:40.396Z,5.78
2023-04-06T08:16:40.558Z,9.1
2023-04-06T08:20:40.613Z,4.28
2023-04-06T08:24:40.490Z,7.87
2023-04-06T08:28:41.062Z,2.55
2023-04-06T08:32:40.641Z,3.17
2023-04-06T08:36:40.215Z,3.42
2023-04-06T08:40:40.528Z,5.15
2023-04-06T08:44:40.427Z,11.48
2023-04-06T08:48:40.064Z,2.25
2023-04-06T08:52:41.170Z,2.83
2023-04-06T08:56:41.214Z,4.18
2023-04-06T09:00:40.567Z,5.03
2023-04-06T09:04:41.083Z,6.85
2023-04-06T09:08:40.443Z,8.85
2023-04-06T09:12:40.553Z,5.68
2023-04-06T09:16:40.470Z,2.97
2023-04-06T09:20:40.830Z,3.2
2023-04-06T09:24:40.441Z,6.15
2023-04-06T09:28:41.107Z,4.18
2023-04-06T09:32:40.394Z,8.88
2023-04-06T09:36:40.502Z,3.83
2023-04-06T09:40:45.591Z,4.37
2023-04-06T09:44:40.539Z,3.65
2023-04-06T09:48:40.733Z,3.12
2023-04-06T09:52:40.481Z,4.28
2023-04-06T09:56:40.688Z,3.12
2023-04-06T10:00:40.579Z,3.85
2023-04-06T10:04:40.632Z,6.18
2023-04-06T10:08:40.426Z,5.5
2023-04-06T10:12:40.546Z,3.47
2023-04-06T10:16:40.549Z,4.97
2023-04-06T10:20:40.279Z,5.35
2023-04-06T10:24:40.456Z,5.2
2023-04-06T10:28:40.493Z,3.72
2023-04-06T10:32:40.852Z,8.25
2023-04-06T10:36:39.988Z,2.87
2023-04-06T10:40:41.105Z,5
2023-04-06T10:44:40.529Z,5.35
2023-04-06T10:48:40.501Z,5.15
2023-04-06T10:52:40.514Z,3.6
2023-04-06T10:56:40.552Z,2.87
2023-04-06T11:00:49.492Z,3.33
2023-04-06T11:04:40.694Z,4.28
2023-04-06T11:08:41.058Z,5.53
2023-04-06T11:12:40.487Z,3.4
2023-04-06T11:16:40.393Z,5.78
2023-04-06T11:20:40.611Z,2.37
2023-04-06T11:24:40.883Z,3.05
2023-04-06T11:28:40.614Z,4.07
2023-04-06T11:32:40.893Z,3.05
2023-04-06T11:36:40.516Z,3.55
2023-04-06T11:40:40.549Z,4.65
2023-04-06T11:44:41.232Z,6.05
2023-04-06T11:48:40.842Z,3.37
2023-04-06T11:52:40.489Z,5.07
2023-04-06T11:56:40.306Z,4.55
2023-04-06T12:00:41.361Z,7.03
2023-04-06T12:04:40.868Z,4.6
2023-04-06T12:08:40.682Z,2.97
2023-04-06T12:12:40.455Z,2.58
2023-04-06T12:16:40.643Z,2.3
2023-04-06T12:20:40.531Z,3.3
2023-04-06T12:24:40.477Z,2.8
2023-04-06T12:28:41.122Z,2.83
2023-04-06T12:32:40.828Z,3.72
2023-04-06T12:36:40.421Z,2.53
2023-04-06T12:40:40.457Z,3.08
2023-04-06T12:44:40.543Z,2.87
2023-04-06T12:48:40.920Z,2.2
2023-04-06T12:52:39.449Z,3.83
2023-04-06T12:56:40.510Z,2.6
2023-04-06T13:00:41.201Z,3.25
2023-04-06T13:04:40.492Z,2.35
2023-04-06T13:08:40.678Z,6.1
2023-04-06T13:12:40.410Z,7.4
2023-04-06T13:16:40.438Z,4.47
2023-04-06T13:20:40.501Z,3.78
2023-04-06T13:24:40.463Z,6.03
2023-04-06T13:28:41.315Z,4
2023-04-06T13:32:40.726Z,2.75
2023-04-06T13:36:40.651Z,3.35
2023-04-06T13:40:41.045Z,4.62
2023-04-06T13:44:40.654Z,4.28
2023-04-06T13:48:40.754Z,3.72
2023-04-06T13:52:40.869Z,4.57
2023-04-06T13:56:41.253Z,3.25
2023-04-06T14:00:40.802Z,2.67
2023-04-06T14:04:40.717Z,4.9
2023-04-06T14:08:40.695Z,12.13
2023-04-06T14:12:40.713Z,3.6
2023-04-06T14:16:40.476Z,4.05
2023-04-06T14:20:40.568Z,4.57
2023-04-06T14:24:40.537Z,2.72
2023-04-06T14:28:41.196Z,2.83
2023-04-06T14:32:40.383Z,3.15
2023-04-06T14:36:40.806Z,3.72
2023-04-06T14:40:40.555Z,2.85
2023-04-06T14:44:40.426Z,3.08
2023-04-06T14:48:40.703Z,3.12
2023-04-06T14:52:40.449Z,2.33
2023-04-06T14:56:40.624Z,4.53
2023-04-06T15:00:40.580Z,4.97
2023-04-06T15:04:40.696Z,3.58
2023-04-06T15:08:40.516Z,3.6
2023-04-06T15:12:40.442Z,4.87
2023-04-06T15:16:40.624Z,3.7
2023-04-06T15:20:40.555Z,5.55
2023-04-06T15:24:40.429Z,3.4
2023-04-06T15:28:40.403Z,5.12
2023-04-06T15:32:40.591Z,1.8
2023-04-06T15:36:40.667Z,4.4
2023-04-06T15:40:40.567Z,4.35
2023-04-06T15:44:40.205Z,4.03
2023-04-06T15:48:40.636Z,3.45
2023-04-06T15:52:40.440Z,4.2
2023-04-06T15:56:40.427Z,4.05
2023-04-06T16:00:40.598Z,3.7
2023-04-06T16:04:40.632Z,6.03
2023-04-06T16:08:41.051Z,7.37
2023-04-06T16:12:40.720Z,6.05
2023-04-06T16:16:40.360Z,4.47
2023-04-06T16:20:41.176Z,3.9
2023-04-06T16:24:40.812Z,6.03
2023-04-06T16:28:39.954Z,5.85
2023-04-06T16:32:40.504Z,4.07
2023-04-06T16:36:39.307Z,8.1
2023-04-06T16:40:40.565Z,4.2
2023-04-06T16:44:40.544Z,4.35
2023-04-06T16:48:39.488Z,4
2023-04-06T16:52:41.212Z,4.95
2023-04-06T16:56:40.423Z,9.65
2023-04-06T17:00:40.833Z,5.7
2023-04-06T17:04:40.702Z,5.45
2023-04-06T17:08:40.512Z,7.82
2023-04-06T17:12:40.545Z,6.5
2023-04-06T17:16:40.903Z,4.5
2023-04-06T17:20:40.309Z,7.32
2023-04-06T17:24:40.413Z,3.67
2023-04-06T17:28:39.404Z,6.35
2023-04-06T17:32:40.551Z,4.37
2023-04-06T17:36:40.492Z,4.18
2023-04-06T17:40:40.575Z,3.67
2023-04-06T17:44:40.947Z,6.7
2023-04-06T17:48:40.481Z,3.17
2023-04-06T17:52:41.037Z,6.62
2023-04-06T17:56:40.855Z,4.47
2023-04-06T18:00:40.686Z,7.7
2023-04-06T18:04:40.705Z,5.12
2023-04-06T18:08:40.869Z,6.55
2023-04-06T18:12:40.481Z,5.05
2023-04-06T18:16:40.472Z,9.3
2023-04-06T18:20:40.715Z,6.45
2023-04-06T18:24:43.010Z,8.77
2023-04-06T18:28:40.793Z,12.27
2023-04-06T18:32:40.713Z,4.73
2023-04-06T18:36:40.296Z,6.37
2023-04-06T18:40:40.566Z,8.07
2023-04-06T18:44:40.498Z,15.07
2023-04-06T18:48:40.541Z,11.6
2023-04-06T18:52:40.596Z,9.47
2023-04-06T18:56:40.576Z,11.43
2023-04-06T19:00:40.500Z,9.23
2023-04-06T19:04:40.797Z,9.9
2023-04-06T19:08:40.510Z,12.27
2023-04-06T19:12:40.503Z,8.97
2023-04-06T19:16:40.421Z,9.63
2023-04-06T19:20:40.421Z,13.6
2023-04-06T19:24:40.592Z,9.77
2023-04-06T19:28:40.543Z,13.8
2023-04-06T19:32:40.294Z,11.33
2023-04-06T19:36:40.251Z,8.4
2023-04-06T19:40:40.792Z,11.7
2023-04-06T19:44:40.576Z,7.9
2023-04-06T19:48:40.415Z,11.57
2023-04-06T19:52:40.495Z,10.8
2023-04-06T19:56:40.376Z,8.73
2023-04-06T20:00:40.412Z,13.33
2023-04-06T20:04:40.789Z,12.6
2023-04-06T20:08:40.446Z,12.97
2023-04-06T20:12:40.153Z,13.8
2023-04-06T20:16:40.545Z,10.97
2023-04-06T20:20:40.457Z,16.07
2023-04-06T20:24:40.394Z,9.47
2023-04-06T20:28:40.478Z,9.37
2023-04-06T20:32:40.319Z,8.1
2023-04-06T20:36:40.511Z,6.4
2023-04-06T20:40:40.414Z,9.23
2023-04-06T20:44:40.698Z,11.23
2023-04-06T20:48:40.580Z,11.63
2023-04-06T20:52:40.437Z,8.6
2023-04-06T20:56:40.555Z,10.2
2023-04-06T21:00:40.489Z,12.63
2023-04-06T21:04:40.859Z,11.37
2023-04-06T21:08:40.942Z,9.03
2023-04-06T21:12:40.241Z,13.5
2023-04-06T21:16:40.405Z,8.13
2023-04-06T21:20:40.519Z,13.73
2023-04-06T21:24:40.431Z,11.53
2023-04-06T21:28:40.562Z,10.1
2023-04-06T21:32:40.334Z,9.13
2023-04-06T21:36:40.381Z,8.87
2023-04-06T21:40:40.440Z,9.3
2023-04-06T21:44:40.375Z,10.07
2023-04-06T21:48:40.514Z,11.27
2023-04-06T21:52:40.501Z,8.5
2023-04-06T21:56:40.287Z,10.2
2023-04-06T22:00:39.719Z,14.07
2023-04-06T22:04:41.331Z,13.27
2023-04-06T22:08:40.504Z,12.53
2023-04-06T22:12:40.555Z,12.63
2023-04-06T22:16:40.396Z,12.6
2023-04-06T22:20:40.828Z,16.8
2023-04-06T22:24:40.489Z,15.27
2023-04-06T22:28:39.612Z,19.33
2023-04-06T22:32:40.481Z,18.7
2023-04-06T22:36:40.527Z,18.93
2023-04-06T22:40:40.678Z,20.7
2023-04-06T22:44:40.373Z,20.07
2023-04-06T22:48:40.731Z,21.93
2023-04-06T22:52:40.475Z,19.97
2023-04-06T22:56:40.811Z,23.2
2023-04-06T23:00:40.496Z,18.6
2023-04-06T23:04:40.672Z,25.23
2023-04-06T23:08:40.801Z,22.53
2023-04-06T23:12:41.090Z,24.1
2023-04-06T23:16:40.778Z,24.87
2023-04-06T23:20:40.794Z,47.2
2023-04-06T23:24:40.537Z,24.23
2023-04-06T23:28:40.459Z,22.7
2023-04-06T23:32:40.463Z,25.1
2023-04-06T23:36:40.285Z,25.07
2023-04-06T23:40:40.335Z,24.67
2023-04-06T23:44:40.549Z,38.2
2023-04-06T23:48:40.362Z,29.67
2023-04-06T23:52:41.138Z,26.1
2023-04-06T23:56:40.593Z,25.87
